createdAt,value
2018-10-11T00:02:23.528Z,13.20
2018-10-11T00:04:52.918Z,13.20
2018-10-11T00:07:22.252Z,13.20
2018-10-11T00:09:51.575Z,13.20
2018-10-11T00:12:20.863Z,13.20
2018-10-11T00:14:50.232Z,13.30
2018-10-11T00:17:19.489Z,13.20
2018-10-11T00:19:48.938Z,13.30
2018-10-11T00:22:18.696Z,13.30
2018-10-11T00:24:47.932Z,13.30
2018-10-11T00:27:17.161Z,13.30
2018-10-11T00:29:46.389Z,13.20
2018-10-11T00:32:15.630Z,13.20
2018-10-11T00:34:44.940Z,13.20
2018-10-11T00:37:14.079Z,13.20
2018-10-11T00:39:44.111Z,13.10
2018-10-11T00:42:13.389Z,13.10
2018-10-11T00:44:42.688Z,13.00
2018-10-11T00:47:11.937Z,13.00
2018-10-11T00:49:41.177Z,12.90
2018-10-11T00:52:10.392Z,12.80
2018-10-11T00:54:40.491Z,12.90
2018-10-11T00:57:09.743Z,12.80
2018-10-11T00:59:38.967Z,12.80
2018-10-11T01:02:08.247Z,12.80
2018-10-11T01:04:37.550Z,12.80
2018-10-11T01:07:07.016Z,12.80
2018-10-11T01:09:36.941Z,12.70
2018-10-11T01:12:06.993Z,12.70
2018-10-11T01:14:36.230Z,12.60
2018-10-11T01:17:05.481Z,12.60
2018-10-11T01:19:34.725Z,12.60
2018-10-11T01:22:03.954Z,12.50
2018-10-11T01:24:33.226Z,12.50
2018-10-11T01:27:02.447Z,12.40
2018-10-11T01:29:33.102Z,12.30
2018-10-11T01:32:02.382Z,12.30
2018-10-11T01:34:31.600Z,12.30
2018-10-11T01:37:00.849Z,12.30
2018-10-11T01:39:30.248Z,12.20
2018-10-11T01:41:59.531Z,12.20
2018-10-11T01:44:28.837Z,12.20
2018-10-11T01:46:58.100Z,12.20
2018-10-11T01:49:27.369Z,12.20
2018-10-11T01:51:56.614Z,12.30
2018-10-11T01:54:25.863Z,12.30
2018-10-11T01:56:55.150Z,12.30
2018-10-11T01:59:24.439Z,12.20
2018-10-11T02:01:53.679Z,12.10
2018-10-11T02:04:23.822Z,12.20
2018-10-11T02:06:53.199Z,12.20
2018-10-11T02:09:23.078Z,12.20
2018-10-11T02:11:52.270Z,12.20
2018-10-11T02:14:21.524Z,12.20
2018-10-11T02:16:50.778Z,12.20
2018-10-11T02:19:20.920Z,12.20
2018-10-11T02:21:50.144Z,12.20
2018-10-11T02:24:19.401Z,12.10
2018-10-11T02:26:48.632Z,12.10
2018-10-11T02:29:17.867Z,12.10
2018-10-11T02:31:47.134Z,12.10
2018-10-11T02:34:16.583Z,12.10
2018-10-11T02:36:45.815Z,12.10
2018-10-11T02:39:15.057Z,12.10
2018-10-11T02:41:44.306Z,12.10
2018-10-11T02:44:13.531Z,12.10
2018-10-11T02:46:43.376Z,12.10
2018-10-11T02:49:12.677Z,12.10
2018-10-11T02:51:41.960Z,12.10
2018-10-11T02:54:11.375Z,12.10
2018-10-11T02:56:40.804Z,12.20
2018-10-11T02:59:33.264Z,12.20
2018-10-11T03:02:11.937Z,12.20
2018-10-11T03:04:42.666Z,12.10
2018-10-11T03:07:12.456Z,12.10
2018-10-11T03:09:42.670Z,12.10
2018-10-11T03:12:12.568Z,12.10
2018-10-11T03:14:41.921Z,12.10
2018-10-11T03:17:11.498Z,12.00
2018-10-11T03:19:41.711Z,12.00
2018-10-11T03:22:11.401Z,12.10
2018-10-11T03:24:41.009Z,12.10
2018-10-11T03:27:10.274Z,12.10
2018-10-11T03:29:39.503Z,12.10
2018-10-11T03:32:08.741Z,12.10
2018-10-11T03:34:38.237Z,12.10
2018-10-11T03:37:07.661Z,12.10
2018-10-11T03:39:36.904Z,12.10
2018-10-11T03:42:06.143Z,12.10
2018-10-11T03:44:35.475Z,12.10
2018-10-11T03:47:04.721Z,12.10
2018-10-11T03:49:34.710Z,12.10
2018-10-11T03:52:04.024Z,12.00
2018-10-11T03:54:33.239Z,12.10
2018-10-11T03:57:02.536Z,12.00
2018-10-11T03:59:31.802Z,12.00
2018-10-11T04:02:01.068Z,12.00
2018-10-11T04:04:30.309Z,12.00
2018-10-11T04:06:59.565Z,11.90
2018-10-11T04:09:29.008Z,11.90
2018-10-11T04:11:58.444Z,11.80
2018-10-11T04:14:27.708Z,11.80
2018-10-11T04:16:56.956Z,11.80
2018-10-11T04:19:26.178Z,11.80
2018-10-11T04:21:55.456Z,11.80
2018-10-11T04:24:24.850Z,11.90
2018-10-11T04:26:54.083Z,11.90
2018-10-11T04:29:23.331Z,11.80
2018-10-11T04:31:52.555Z,11.80
2018-10-11T04:34:21.779Z,11.80
2018-10-11T04:36:51.036Z,11.80
2018-10-11T04:39:20.297Z,11.80
2018-10-11T04:41:49.534Z,11.80
2018-10-11T04:44:18.813Z,11.90
2018-10-11T04:46:48.877Z,11.90
2018-10-11T04:49:18.155Z,12.00
2018-10-11T04:51:47.392Z,12.00
2018-10-11T04:54:16.641Z,11.90
2018-10-11T04:56:45.880Z,11.90
2018-10-11T04:59:15.117Z,11.80
2018-10-11T05:01:44.367Z,11.80
2018-10-11T05:04:13.601Z,11.80
2018-10-11T05:06:42.846Z,11.80
2018-10-11T05:09:12.138Z,11.80
2018-10-11T05:11:42.231Z,11.80
2018-10-11T05:14:13.385Z,11.80
2018-10-11T05:16:42.691Z,11.80
2018-10-11T05:19:12.037Z,11.70
2018-10-11T05:21:41.513Z,11.80
2018-10-11T05:24:10.780Z,11.70
2018-10-11T05:26:40.077Z,11.70
2018-10-11T05:29:09.376Z,11.60
2018-10-11T05:31:38.835Z,11.60
2018-10-11T05:34:08.340Z,11.50
2018-10-11T05:36:37.583Z,11.40
2018-10-11T05:39:07.956Z,11.40
2018-10-11T05:41:37.284Z,11.40
2018-10-11T05:44:06.801Z,11.40
2018-10-11T05:46:36.120Z,11.30
2018-10-11T05:49:06.391Z,11.30
2018-10-11T05:51:36.304Z,11.30
2018-10-11T05:54:06.764Z,11.20
2018-10-11T05:56:37.812Z,11.20
2018-10-11T05:59:07.969Z,11.20
2018-10-11T06:01:37.298Z,11.20
2018-10-11T06:04:07.955Z,11.10
2018-10-11T06:06:37.216Z,11.10
2018-10-11T06:09:08.059Z,11.10
2018-10-11T06:11:37.415Z,11.10
2018-10-11T06:14:06.764Z,11.20
2018-10-11T06:16:36.810Z,11.20
2018-10-11T06:19:06.240Z,11.20
2018-10-11T06:21:35.621Z,11.20
2018-10-11T06:24:05.060Z,11.20
2018-10-11T06:26:34.345Z,11.30
2018-10-11T06:29:03.637Z,11.40
2018-10-11T06:31:32.961Z,11.40
2018-10-11T06:34:02.316Z,11.60
2018-10-11T06:36:31.882Z,11.60
2018-10-11T06:39:02.114Z,11.70
2018-10-11T06:41:31.374Z,11.70
2018-10-11T06:44:00.771Z,11.70
2018-10-11T06:46:30.085Z,11.80
2018-10-11T06:48:59.425Z,11.80
2018-10-11T06:51:28.784Z,11.80
2018-10-11T06:53:58.069Z,11.80
2018-10-11T06:56:27.417Z,11.80
2018-10-11T06:58:56.937Z,11.80
2018-10-11T07:01:26.245Z,11.90
2018-10-11T07:03:55.500Z,12.00
2018-10-11T07:06:24.775Z,12.10
2018-10-11T07:08:54.036Z,12.10
2018-10-11T07:11:23.308Z,12.20
2018-10-11T07:13:52.594Z,12.20
2018-10-11T07:16:21.808Z,12.30
2018-10-11T07:18:51.331Z,12.30
2018-10-11T07:21:20.787Z,12.40
2018-10-11T07:23:50.241Z,12.50
2018-10-11T07:26:19.596Z,12.60
2018-10-11T07:28:48.837Z,12.70
2018-10-11T07:31:18.112Z,12.80
2018-10-11T07:33:47.360Z,12.80
2018-10-11T07:36:16.652Z,12.90
2018-10-11T07:38:45.896Z,13.00
2018-10-11T07:41:15.267Z,13.00
2018-10-11T07:43:44.687Z,13.10
2018-10-11T07:46:13.945Z,13.20
2018-10-11T07:48:43.476Z,13.20
2018-10-11T07:51:13.224Z,13.30
2018-10-11T07:53:42.605Z,13.30
2018-10-11T07:56:11.861Z,13.40
2018-10-11T07:58:41.130Z,13.50
2018-10-11T08:01:10.396Z,13.60
2018-10-11T08:03:39.781Z,13.70
2018-10-11T08:06:09.033Z,13.80
2018-10-11T08:08:38.332Z,13.80
2018-10-11T08:11:08.074Z,13.90
2018-10-11T08:13:37.252Z,14.00
2018-10-11T08:16:07.013Z,14.00
2018-10-11T08:18:36.272Z,14.10
2018-10-11T08:21:05.424Z,14.20
2018-10-11T08:23:34.633Z,14.30
2018-10-11T08:26:04.425Z,14.40
2018-10-11T08:28:33.412Z,14.40
2018-10-11T08:31:02.660Z,14.50
2018-10-11T08:33:31.923Z,14.50
2018-10-11T08:36:01.244Z,14.70
2018-10-11T08:38:30.619Z,14.80
2018-10-11T08:40:59.803Z,14.80
2018-10-11T08:43:29.130Z,14.90
2018-10-11T08:45:58.320Z,15.10
2018-10-11T08:48:27.602Z,15.10
2018-10-11T08:50:57.145Z,15.20
2018-10-11T08:53:26.409Z,15.30
2018-10-11T08:55:55.723Z,15.30
2018-10-11T08:58:24.976Z,15.40
2018-10-11T09:00:54.240Z,15.50
2018-10-11T09:03:23.621Z,15.60
2018-10-11T09:05:53.139Z,15.70
2018-10-11T09:08:22.436Z,15.70
2018-10-11T09:10:51.799Z,15.80
2018-10-11T09:13:21.128Z,15.90
2018-10-11T09:15:50.380Z,16.00
2018-10-11T09:18:20.064Z,16.00
2018-10-11T09:20:49.337Z,16.10
2018-10-11T09:23:18.693Z,16.20
2018-10-11T09:25:47.889Z,16.30
2018-10-11T09:28:17.158Z,16.40
2018-10-11T09:30:46.520Z,16.60
2018-10-11T09:33:15.757Z,16.80
2018-10-11T09:35:45.017Z,16.90
2018-10-11T09:38:14.288Z,17.00
2018-10-11T09:40:43.511Z,17.10
2018-10-11T09:43:12.831Z,17.30
2018-10-11T09:45:41.989Z,17.50
2018-10-11T09:48:11.266Z,17.60
2018-10-11T09:50:40.563Z,17.60
2018-10-11T09:53:09.911Z,17.70
2018-10-11T09:55:39.219Z,17.80
2018-10-11T09:58:08.475Z,18.00
2018-10-11T10:00:43.088Z,18.10
2018-10-11T10:03:12.329Z,18.20
2018-10-11T10:05:41.667Z,18.30
2018-10-11T10:08:10.988Z,18.30
2018-10-11T10:10:40.244Z,18.50
2018-10-11T10:13:10.147Z,18.60
2018-10-11T10:15:39.519Z,18.60
2018-10-11T10:18:09.032Z,18.70
2018-10-11T10:20:38.249Z,18.90
2018-10-11T10:23:07.509Z,19.10
2018-10-11T10:25:36.846Z,19.10
2018-10-11T10:28:06.069Z,19.20
2018-10-11T10:30:40.708Z,19.40
2018-10-11T10:33:09.960Z,19.40
2018-10-11T10:35:39.193Z,19.50
2018-10-11T10:38:09.121Z,19.70
2018-10-11T10:40:38.448Z,19.90
2018-10-11T10:43:07.676Z,20.00
2018-10-11T10:45:36.904Z,20.00
2018-10-11T10:48:06.135Z,20.20
2018-10-11T10:50:35.387Z,20.40
2018-10-11T10:53:04.646Z,20.60
2018-10-11T10:55:33.875Z,20.70
2018-10-11T10:58:03.877Z,20.80
2018-10-11T11:00:33.171Z,20.90
2018-10-11T11:03:02.430Z,21.00
2018-10-11T11:05:31.656Z,21.10
2018-10-11T11:08:00.942Z,21.30
2018-10-11T11:10:30.205Z,21.40
2018-10-11T11:12:59.505Z,21.40
2018-10-11T11:15:29.538Z,21.40
2018-10-11T11:17:58.762Z,21.70
2018-10-11T11:20:28.036Z,21.90
2018-10-11T11:22:57.315Z,22.10
2018-10-11T11:25:26.560Z,22.20
2018-10-11T11:27:55.846Z,22.30
2018-10-11T11:30:25.171Z,22.40
2018-10-11T11:32:54.439Z,22.60
2018-10-11T11:35:23.763Z,22.50
2018-10-11T11:37:53.125Z,22.60
2018-10-11T11:40:22.356Z,22.50
2018-10-11T11:42:51.598Z,22.90
2018-10-11T11:45:20.879Z,23.00
2018-10-11T11:47:50.196Z,23.30
2018-10-11T11:50:19.514Z,23.40
2018-10-11T11:52:48.739Z,23.40
2018-10-11T11:55:18.644Z,23.30
2018-10-11T11:57:48.151Z,23.60
2018-10-11T12:00:17.455Z,23.60
2018-10-11T12:02:46.770Z,23.70
2018-10-11T12:05:15.993Z,23.70
2018-10-11T12:07:45.184Z,24.00
2018-10-11T12:10:14.475Z,23.70
2018-10-11T12:12:59.490Z,23.90
2018-10-11T12:15:29.812Z,24.30
2018-10-11T12:18:00.237Z,24.40
2018-10-11T12:20:30.828Z,24.00
2018-10-11T12:23:02.086Z,24.10
2018-10-11T12:25:32.344Z,24.30
2018-10-11T12:28:01.784Z,24.40
2018-10-11T12:30:31.560Z,24.60
2018-10-11T12:33:00.888Z,24.80
2018-10-11T12:35:30.566Z,24.60
2018-10-11T12:37:59.930Z,24.50
2018-10-11T12:40:29.204Z,24.40
2018-10-11T12:42:58.569Z,24.20
2018-10-11T12:45:27.940Z,24.30
2018-10-11T12:47:57.194Z,24.30
2018-10-11T12:50:26.483Z,24.00
2018-10-11T12:52:55.780Z,23.60
2018-10-11T12:55:25.091Z,23.20
2018-10-11T12:57:54.353Z,23.20
2018-10-11T13:00:23.612Z,23.10
2018-10-11T13:02:52.986Z,22.70
2018-10-11T13:05:22.201Z,22.50
2018-10-11T13:07:51.511Z,22.60
2018-10-11T13:10:20.835Z,23.00
2018-10-11T13:12:50.204Z,23.40
2018-10-11T13:15:19.506Z,23.70
2018-10-11T13:17:48.744Z,24.30
2018-10-11T13:20:18.072Z,24.10
2018-10-11T13:22:48.183Z,23.80
2018-10-11T13:25:17.412Z,23.40
2018-10-11T13:27:46.698Z,23.00
2018-10-11T13:30:15.931Z,22.90
2018-10-11T13:32:45.853Z,23.00
2018-10-11T13:35:15.159Z,23.00
2018-10-11T13:37:44.453Z,22.80
2018-10-11T13:40:13.727Z,22.70
2018-10-11T13:42:42.988Z,22.50
2018-10-11T13:45:12.224Z,22.60
2018-10-11T13:47:44.856Z,22.90
2018-10-11T13:50:10.831Z,23.10
2018-10-11T13:52:40.848Z,23.00
2018-10-11T13:55:14.189Z,22.70
2018-10-11T13:57:40.245Z,22.50
2018-10-11T14:00:09.988Z,22.30
2018-10-11T14:02:39.315Z,22.00
2018-10-11T14:05:08.645Z,22.00
2018-10-11T14:07:38.023Z,22.10
2018-10-11T14:10:07.569Z,22.30
2018-10-11T14:12:36.844Z,22.80
2018-10-11T14:15:07.140Z,22.70
2018-10-11T14:17:36.449Z,22.30
2018-10-11T14:20:05.789Z,22.00
2018-10-11T14:22:35.213Z,21.80
2018-10-11T14:25:04.493Z,21.50
2018-10-11T14:27:33.761Z,21.20
2018-10-11T14:30:03.021Z,21.10
2018-10-11T14:32:32.261Z,21.00
2018-10-11T14:35:01.493Z,20.90
2018-10-11T14:37:30.793Z,20.80
2018-10-11T14:40:00.031Z,20.50
2018-10-11T14:42:29.923Z,20.40
2018-10-11T14:44:59.184Z,20.60
2018-10-11T14:47:28.529Z,20.60
2018-10-11T14:49:57.777Z,20.50
2018-10-11T14:52:27.023Z,20.90
2018-10-11T14:54:56.317Z,21.70
2018-10-11T14:57:25.715Z,22.40
2018-10-11T14:59:54.873Z,22.80
2018-10-11T15:02:24.244Z,23.00
2018-10-11T15:04:53.557Z,23.20
2018-10-11T15:07:22.824Z,23.20
2018-10-11T15:09:53.068Z,23.50
2018-10-11T15:12:22.677Z,23.60
2018-10-11T15:14:51.881Z,23.40
2018-10-11T15:17:21.157Z,23.30
2018-10-11T15:19:50.549Z,22.90
2018-10-11T15:22:19.704Z,22.30
2018-10-11T15:24:48.954Z,21.80
2018-10-11T15:27:18.202Z,21.50
2018-10-11T15:29:47.677Z,21.30
2018-10-11T15:32:16.801Z,21.20
2018-10-11T15:34:46.113Z,20.90
2018-10-11T15:37:15.508Z,20.80
2018-10-11T15:39:44.759Z,20.60
2018-10-11T15:42:14.058Z,20.50
2018-10-11T15:44:43.573Z,20.40
2018-10-11T15:47:12.888Z,20.30
2018-10-11T15:49:42.161Z,20.20
2018-10-11T15:52:11.683Z,20.10
2018-10-11T15:54:41.580Z,20.00
2018-10-11T15:57:10.904Z,20.00
2018-10-11T15:59:40.202Z,19.90
2018-10-11T16:02:09.545Z,19.80
2018-10-11T16:04:38.793Z,19.70
2018-10-11T16:07:08.960Z,19.60
2018-10-11T16:09:38.713Z,19.50
2018-10-11T16:12:08.008Z,19.50
2018-10-11T16:14:37.279Z,19.40
2018-10-11T16:17:06.586Z,19.20
2018-10-11T16:19:35.880Z,19.00
2018-10-11T16:22:05.181Z,18.70
2018-10-11T16:24:34.567Z,18.50
2018-10-11T16:27:03.872Z,18.50
2018-10-11T16:29:33.124Z,18.50
2018-10-11T16:32:02.450Z,18.50
2018-10-11T16:34:31.661Z,18.40
2018-10-11T16:37:01.001Z,18.40
2018-10-11T16:39:30.431Z,18.40
2018-10-11T16:42:00.229Z,18.20
2018-10-11T16:44:29.481Z,18.10
2018-10-11T16:46:58.732Z,18.00
2018-10-11T16:49:28.025Z,18.00
2018-10-11T16:51:57.332Z,18.00
2018-10-11T16:54:27.360Z,18.20
2018-10-11T16:56:56.633Z,18.20
2018-10-11T16:59:26.036Z,18.20
2018-10-11T17:01:55.260Z,18.10
2018-10-11T17:04:24.603Z,18.10
2018-10-11T17:06:53.828Z,18.10
2018-10-11T17:09:23.111Z,18.00
2018-10-11T17:11:52.365Z,18.10
2018-10-11T17:14:22.331Z,18.00
2018-10-11T17:16:51.668Z,17.90
2018-10-11T17:19:20.940Z,17.80
2018-10-11T17:21:50.484Z,17.80
2018-10-11T17:24:19.752Z,17.80
2018-10-11T17:26:49.029Z,17.70
2018-10-11T17:29:19.324Z,17.60
2018-10-11T17:31:48.612Z,17.60
2018-10-11T17:34:18.030Z,17.70
2018-10-11T17:36:47.322Z,17.70
2018-10-11T17:39:16.694Z,17.70
2018-10-11T17:41:46.813Z,17.70
2018-10-11T17:44:16.065Z,17.70
2018-10-11T17:46:45.352Z,17.60
2018-10-11T17:49:14.641Z,17.60
2018-10-11T17:51:43.901Z,17.70
2018-10-11T17:54:13.273Z,17.80
2018-10-11T17:56:42.598Z,17.80
2018-10-11T17:59:11.938Z,17.90
2018-10-11T18:01:41.200Z,17.90
2018-10-11T18:04:10.524Z,17.90
2018-10-11T18:06:39.860Z,17.90
2018-10-11T18:09:10.157Z,17.90
2018-10-11T18:11:39.442Z,17.80
2018-10-11T18:14:09.583Z,17.80
2018-10-11T18:16:38.977Z,17.70
2018-10-11T18:19:08.627Z,17.70
2018-10-11T18:21:37.990Z,17.70
2018-10-11T18:24:07.668Z,17.70
2018-10-11T18:26:37.108Z,17.60
2018-10-11T18:29:06.651Z,17.60
2018-10-11T18:31:36.105Z,17.70
2018-10-11T18:34:05.413Z,17.60
2018-10-11T18:36:34.925Z,17.70
2018-10-11T18:39:06.444Z,17.70
2018-10-11T18:41:35.722Z,17.60
2018-10-11T18:44:04.996Z,17.60
2018-10-11T18:46:34.304Z,17.60
2018-10-11T18:49:03.618Z,17.50
2018-10-11T18:51:32.889Z,17.60
2018-10-11T18:54:02.178Z,17.60
2018-10-11T18:56:31.461Z,17.70
2018-10-11T18:59:00.701Z,17.70
2018-10-11T19:01:30.002Z,17.60
2018-10-11T19:03:59.388Z,17.60
2018-10-11T19:06:28.829Z,17.60
2018-10-11T19:08:58.038Z,17.60
2018-10-11T19:11:27.297Z,17.60
2018-10-11T19:13:56.549Z,17.60
2018-10-11T19:16:26.248Z,17.70
2018-10-11T19:18:55.517Z,17.70
2018-10-11T19:21:24.836Z,17.90
2018-10-11T19:23:54.105Z,17.90
2018-10-11T19:26:23.375Z,17.80
2018-10-11T19:28:52.760Z,17.90
2018-10-11T19:31:22.001Z,17.90
2018-10-11T19:33:51.256Z,17.90
2018-10-11T19:36:20.741Z,17.90
2018-10-11T19:38:49.992Z,17.90
2018-10-11T19:41:19.393Z,17.80
2018-10-11T19:43:48.740Z,17.80
2018-10-11T19:46:18.021Z,17.90
2018-10-11T19:48:47.251Z,18.00
2018-10-11T19:51:16.624Z,18.00
2018-10-11T19:53:45.953Z,18.10
2018-10-11T19:56:15.324Z,18.00
2018-10-11T19:58:44.452Z,18.00
2018-10-11T20:01:13.717Z,17.90
2018-10-11T20:03:42.951Z,17.80
2018-10-11T20:06:12.286Z,17.70
2018-10-11T20:08:41.601Z,17.60
2018-10-11T20:11:10.841Z,17.50
2018-10-11T20:13:40.203Z,17.40
2018-10-11T20:16:09.470Z,17.40
2018-10-11T20:18:38.724Z,17.30
2018-10-11T20:21:08.303Z,17.30
2018-10-11T20:23:38.684Z,17.20
2018-10-11T20:26:07.991Z,17.10
2018-10-11T20:28:37.226Z,17.10
2018-10-11T20:31:06.599Z,17.10
2018-10-11T20:33:35.866Z,17.10
2018-10-11T20:36:05.112Z,17.10
2018-10-11T20:38:35.283Z,16.90
2018-10-11T20:41:04.556Z,16.90
2018-10-11T20:43:33.852Z,16.90
2018-10-11T20:46:03.100Z,16.80
2018-10-11T20:48:33.006Z,16.80
2018-10-11T20:51:02.301Z,16.80
2018-10-11T20:53:31.578Z,16.70
2018-10-11T20:56:00.825Z,16.70
2018-10-11T20:58:30.056Z,16.60
2018-10-11T21:00:59.320Z,16.60
2018-10-11T21:03:28.557Z,16.60
2018-10-11T21:05:58.473Z,16.60
2018-10-11T21:08:27.751Z,16.50
2018-10-11T21:10:57.092Z,16.60
2018-10-11T21:13:26.353Z,16.50
2018-10-11T21:15:55.607Z,16.50
2018-10-11T21:18:24.858Z,16.50
2018-10-11T21:20:54.145Z,16.30
2018-10-11T21:23:24.211Z,16.30
2018-10-11T21:25:53.451Z,16.30
2018-10-11T21:28:22.733Z,16.20
2018-10-11T21:30:51.957Z,16.20
2018-10-11T21:33:21.181Z,16.20
2018-10-11T21:35:51.042Z,16.10
2018-10-11T21:38:20.393Z,16.10
2018-10-11T21:40:49.752Z,16.00
2018-10-11T21:43:19.016Z,16.00
2018-10-11T21:45:48.259Z,16.00
2018-10-11T21:48:17.504Z,16.00
2018-10-11T21:50:46.980Z,16.00
2018-10-11T21:53:16.207Z,16.10
2018-10-11T21:55:45.487Z,16.10
2018-10-11T21:58:14.852Z,16.20
2018-10-11T22:00:49.368Z,16.10
2018-10-11T22:03:18.664Z,16.20
2018-10-11T22:05:48.653Z,16.30
2018-10-11T22:08:17.979Z,16.30
2018-10-11T22:10:47.231Z,16.30
2018-10-11T22:13:16.460Z,16.40
2018-10-11T22:15:45.933Z,16.40
2018-10-11T22:18:15.227Z,16.40
2018-10-11T22:20:44.612Z,16.40
2018-10-11T22:23:13.864Z,16.40
2018-10-11T22:25:43.104Z,16.50
2018-10-11T22:28:12.538Z,16.40
2018-10-11T22:30:41.956Z,16.30
2018-10-11T22:33:11.223Z,16.20
2018-10-11T22:35:40.484Z,16.30
2018-10-11T22:38:09.750Z,16.20
2018-10-11T22:40:39.069Z,16.20
2018-10-11T22:43:09.481Z,16.10
2018-10-11T22:45:38.925Z,16.10
2018-10-11T22:48:08.158Z,16.10
2018-10-11T22:50:37.382Z,16.20
2018-10-11T22:53:06.825Z,16.20
2018-10-11T22:55:36.105Z,16.10
2018-10-11T22:58:05.367Z,16.10
2018-10-11T23:00:34.638Z,16.00
2018-10-11T23:03:03.907Z,15.90
2018-10-11T23:05:33.136Z,15.90
2018-10-11T23:08:03.940Z,15.90
2018-10-11T23:10:33.285Z,15.80
2018-10-11T23:13:03.101Z,15.80
2018-10-11T23:15:32.511Z,15.80
2018-10-11T23:18:01.748Z,15.90
2018-10-11T23:20:31.205Z,15.80
2018-10-11T23:23:00.471Z,15.70
2018-10-11T23:25:29.753Z,15.60
2018-10-11T23:27:59.000Z,15.50
2018-10-11T23:30:28.263Z,15.50
2018-10-11T23:32:57.506Z,15.50
2018-10-11T23:35:26.719Z,15.40
2018-10-11T23:37:55.930Z,15.40
2018-10-11T23:40:25.168Z,15.50
2018-10-11T23:42:54.416Z,15.50
2018-10-11T23:45:23.655Z,15.50
2018-10-11T23:47:53.001Z,15.40
2018-10-11T23:50:22.290Z,15.50
2018-10-11T23:52:51.637Z,15.50
2018-10-11T23:55:20.898Z,15.50
2018-10-11T23:57:50.233Z,15.50
